createdAt,value
2018-06-09T00:00:31.603Z,84.13
2018-06-09T00:03:04.287Z,82.00
2018-06-09T00:05:36.666Z,83.37
2018-06-09T00:08:09.054Z,91.87
2018-06-09T00:10:41.431Z,92.27
2018-06-09T00:13:13.813Z,95.77
2018-06-09T00:15:46.417Z,93.23
2018-06-09T00:18:18.805Z,92.30
2018-06-09T00:20:51.293Z,93.13
2018-06-09T00:23:23.673Z,97.17
2018-06-09T00:25:56.057Z,94.00
2018-06-09T00:28:28.460Z,97.80
2018-06-09T00:31:00.833Z,91.63
2018-06-09T00:33:33.229Z,94.83
2018-06-09T00:36:05.893Z,89.27
2018-06-09T00:38:38.285Z,94.20
2018-06-09T00:41:10.981Z,91.13
2018-06-09T00:43:43.380Z,103.23
2018-06-09T00:46:16.043Z,103.43
2018-06-09T00:48:48.717Z,107.77
2018-06-09T00:51:21.121Z,89.87
2018-06-09T00:53:53.529Z,97.17
2018-06-09T00:56:37.465Z,99.27
2018-06-09T00:59:09.945Z,105.83
2018-06-09T01:01:42.349Z,94.93
2018-06-09T01:04:14.744Z,94.83
2018-06-09T01:06:47.401Z,103.93
2018-06-09T01:09:19.793Z,102.43
2018-06-09T01:11:52.201Z,106.87
2018-06-09T01:14:24.597Z,115.17
2018-06-09T01:16:56.997Z,102.90
2018-06-09T01:19:29.665Z,110.83
2018-06-09T01:22:02.345Z,108.40
2018-06-09T01:24:34.746Z,119.97
2018-06-09T01:27:07.161Z,108.57
2018-06-09T01:29:40.077Z,119.73
2018-06-09T01:32:12.491Z,116.77
2018-06-09T01:34:44.881Z,120.27
2018-06-09T01:37:17.297Z,121.83
2018-06-09T01:39:49.975Z,103.40
2018-06-09T01:42:22.649Z,113.17
2018-06-09T01:44:55.283Z,114.47
2018-06-09T01:47:27.905Z,113.43
2018-06-09T01:50:00.286Z,108.03
2018-06-09T01:52:32.676Z,104.83
2018-06-09T01:55:05.065Z,104.70
2018-06-09T01:57:37.453Z,109.73
2018-06-09T02:00:09.825Z,103.83
2018-06-09T02:02:42.217Z,92.60
2018-06-09T02:05:14.707Z,104.40
2018-06-09T02:07:47.093Z,107.37
2018-06-09T02:10:19.762Z,114.93
2018-06-09T02:12:52.365Z,114.40
2018-06-09T02:15:24.981Z,113.10
2018-06-09T02:17:57.373Z,119.57
2018-06-09T02:20:29.753Z,123.70
2018-06-09T02:23:02.397Z,117.73
2018-06-09T02:25:35.025Z,112.60
2018-06-09T02:28:07.417Z,113.30
2018-06-09T02:30:39.802Z,121.03
2018-06-09T02:33:12.438Z,110.97
2018-06-09T02:35:44.818Z,110.40
2018-06-09T02:38:17.206Z,107.97
2018-06-09T02:40:50.269Z,108.83
2018-06-09T02:43:22.665Z,114.23
2018-06-09T02:45:55.067Z,122.50
2018-06-09T02:48:27.461Z,118.60
2018-06-09T02:50:59.833Z,114.57
2018-06-09T02:53:32.489Z,115.73
2018-06-09T02:56:04.906Z,109.37
2018-06-09T02:58:37.309Z,107.97
2018-06-09T03:01:09.686Z,92.37
2018-06-09T03:03:42.082Z,104.80
2018-06-09T03:06:14.470Z,101.17
2018-06-09T03:08:46.862Z,99.90
2018-06-09T03:11:19.337Z,97.67
2018-06-09T03:13:51.717Z,97.80
2018-06-09T03:16:24.105Z,89.47
2018-06-09T03:18:56.493Z,100.17
2018-06-09T03:21:28.876Z,96.13
2018-06-09T03:26:40.142Z,93.97
2018-06-09T03:29:12.525Z,87.73
2018-06-09T03:31:44.901Z,88.37
2018-06-09T03:34:17.301Z,92.00
2018-06-09T03:36:49.689Z,90.23
2018-06-09T03:39:22.095Z,89.83
2018-06-09T03:41:54.729Z,80.63
2018-06-09T03:44:27.121Z,85.53
2018-06-09T03:46:59.956Z,85.33
2018-06-09T03:49:32.333Z,83.80
2018-06-09T03:52:04.917Z,80.10
2018-06-09T03:54:37.345Z,79.73
2018-06-09T03:57:09.725Z,77.50
2018-06-09T03:59:42.544Z,75.50
2018-06-09T04:02:15.240Z,77.67
2018-06-09T04:04:47.625Z,78.83
2018-06-09T04:07:20.257Z,75.13
2018-06-09T04:09:52.897Z,78.43
2018-06-09T04:12:25.536Z,73.20
2018-06-09T04:14:58.205Z,78.37
2018-06-09T04:17:30.590Z,81.73
2018-06-09T04:20:03.094Z,74.93
2018-06-09T04:22:35.469Z,80.67
2018-06-09T04:25:07.857Z,79.27
2018-06-09T04:27:40.554Z,74.00
2018-06-09T04:30:12.953Z,79.67
2018-06-09T04:32:45.576Z,73.60
2018-06-09T04:35:18.253Z,71.63
2018-06-09T04:37:50.857Z,73.30
2018-06-09T04:40:23.477Z,73.17
2018-06-09T04:42:56.183Z,73.23
2018-06-09T04:45:28.822Z,87.63
2018-06-09T04:48:01.202Z,76.23
2018-06-09T04:50:33.813Z,86.10
2018-06-09T04:53:06.193Z,87.57
2018-06-09T04:55:38.869Z,90.77
2018-06-09T04:58:11.489Z,89.17
2018-06-09T05:00:44.126Z,91.37
2018-06-09T05:03:16.517Z,92.83
2018-06-09T05:05:48.901Z,92.40
2018-06-09T05:08:21.289Z,101.90
2018-06-09T05:10:54.020Z,105.60
2018-06-09T05:13:26.686Z,103.80
2018-06-09T05:15:59.585Z,103.10
2018-06-09T05:18:31.966Z,83.93
2018-06-09T05:21:04.937Z,95.27
2018-06-09T05:23:37.612Z,99.47
2018-06-09T05:26:10.245Z,102.03
2018-06-09T05:28:42.628Z,101.23
2018-06-09T05:31:15.346Z,97.83
2018-06-09T05:33:47.741Z,96.67
2018-06-09T05:36:20.141Z,94.00
2018-06-09T05:38:52.537Z,97.70
2018-06-09T05:41:24.929Z,92.87
2018-06-09T05:43:57.561Z,91.23
2018-06-09T05:46:30.569Z,88.10
2018-06-09T05:49:03.068Z,78.37
2018-06-09T05:51:35.749Z,74.97
2018-06-09T05:54:08.405Z,67.17
2018-06-09T05:56:40.801Z,67.03
2018-06-09T05:59:13.194Z,61.37
2018-06-09T06:01:46.232Z,64.47
2018-06-09T06:04:18.645Z,57.80
2018-06-09T06:06:51.058Z,55.90
2018-06-09T06:09:23.458Z,50.43
2018-06-09T06:11:56.123Z,51.03
2018-06-09T06:14:28.530Z,48.87
2018-06-09T06:17:01.132Z,46.53
2018-06-09T06:19:33.529Z,47.27
2018-06-09T06:22:06.318Z,46.53
2018-06-09T06:24:38.771Z,44.63
2018-06-09T06:27:11.262Z,43.87
2018-06-09T06:29:43.988Z,42.73
2018-06-09T06:32:16.638Z,45.17
2018-06-09T06:34:49.049Z,40.27
2018-06-09T06:37:21.438Z,44.10
2018-06-09T06:39:54.278Z,42.53
2018-06-09T06:42:26.677Z,42.43
2018-06-09T06:44:59.147Z,43.23
2018-06-09T06:47:31.637Z,39.07
2018-06-09T06:50:04.055Z,42.40
2018-06-09T06:52:36.454Z,41.57
2018-06-09T06:55:11.250Z,39.60
2018-06-09T06:57:44.249Z,39.97
2018-06-09T07:00:16.930Z,41.17
2018-06-09T07:02:49.353Z,42.73
2018-06-09T07:05:22.310Z,47.17
2018-06-09T07:07:54.764Z,48.23
2018-06-09T07:10:27.370Z,50.33
2018-06-09T07:12:59.765Z,52.27
2018-06-09T07:15:32.577Z,51.17
2018-06-09T07:18:04.981Z,47.63
2018-06-09T07:20:37.389Z,45.10
2018-06-09T07:23:09.795Z,53.80
2018-06-09T07:25:42.509Z,52.77
2018-06-09T07:28:14.905Z,62.20
2018-06-09T07:30:47.450Z,63.03
2018-06-09T07:33:19.706Z,60.20
2018-06-09T07:35:52.129Z,69.03
2018-06-09T07:38:24.513Z,62.57
2018-06-09T07:40:56.954Z,59.00
2018-06-09T07:43:29.390Z,60.23
2018-06-09T07:46:01.823Z,56.97
2018-06-09T07:48:34.851Z,50.67
2018-06-09T07:51:07.262Z,53.45
2018-06-09T07:53:39.678Z,47.27
2018-06-09T07:56:12.114Z,39.15
2018-06-09T07:58:44.771Z,46.53
2018-06-09T08:01:17.457Z,46.00
2018-06-09T08:03:49.846Z,44.05
2018-06-09T08:06:22.273Z,40.65
2018-06-09T08:08:54.706Z,40.73
2018-06-09T08:11:27.426Z,44.03
2018-06-09T08:13:59.863Z,43.52
2018-06-09T08:16:32.294Z,41.53
2018-06-09T08:19:04.690Z,39.15
2018-06-09T08:21:37.097Z,33.95
2018-06-09T08:24:09.489Z,29.23
2018-06-09T08:26:41.906Z,31.42
2018-06-09T08:29:14.293Z,30.68
2018-06-09T08:31:46.709Z,30.57
2018-06-09T08:34:19.370Z,30.30
2018-06-09T08:36:51.769Z,24.18
2018-06-09T08:39:24.422Z,33.90
2018-06-09T08:41:56.867Z,32.80
2018-06-09T08:44:29.241Z,32.08
2018-06-09T08:47:01.666Z,32.03
2018-06-09T08:49:34.303Z,29.18
2018-06-09T08:52:06.717Z,32.83
2018-06-09T08:54:39.145Z,28.85
2018-06-09T08:57:11.854Z,34.92
2018-06-09T08:59:44.246Z,32.95
2018-06-09T09:02:16.894Z,25.08
2018-06-09T09:04:49.571Z,22.20
2018-06-09T09:07:21.974Z,26.02
2018-06-09T09:09:54.386Z,22.50
2018-06-09T09:12:27.137Z,27.80
2018-06-09T09:14:59.606Z,27.85
2018-06-09T09:17:32.009Z,26.95
2018-06-09T09:20:04.408Z,29.55
2018-06-09T09:22:36.845Z,31.07
2018-06-09T09:25:09.465Z,29.27
2018-06-09T09:27:42.109Z,31.05
2018-06-09T09:30:14.590Z,31.48
2018-06-09T09:32:47.261Z,30.82
2018-06-09T09:35:19.912Z,30.65
2018-06-09T09:37:52.338Z,31.30
2018-06-09T09:40:25.067Z,29.40
2018-06-09T09:42:57.494Z,29.65
2018-06-09T09:45:29.919Z,28.12
2018-06-09T09:48:02.408Z,31.52
2018-06-09T09:50:35.345Z,32.03
2018-06-09T09:53:07.982Z,28.17
2018-06-09T09:55:40.389Z,24.47
2018-06-09T09:58:12.813Z,27.45
2018-06-09T10:00:45.442Z,26.50
2018-06-09T10:03:17.866Z,24.98
2018-06-09T10:05:50.277Z,19.85
2018-06-09T10:08:23.081Z,24.87
2018-06-09T10:10:55.889Z,23.20
2018-06-09T10:13:28.566Z,22.85
2018-06-09T10:16:01.302Z,21.80
2018-06-09T10:18:33.954Z,22.50
2018-06-09T10:21:06.591Z,22.58
2018-06-09T10:23:39.252Z,21.20
2018-06-09T10:26:11.496Z,20.02
2018-06-09T10:28:43.946Z,20.12
2018-06-09T10:31:16.590Z,21.93
2018-06-09T10:33:49.014Z,21.57
2018-06-09T10:36:21.440Z,20.32
2018-06-09T10:38:53.886Z,21.30
2018-06-09T10:41:26.327Z,18.17
2018-06-09T10:43:58.738Z,21.30
2018-06-09T10:46:31.175Z,18.92
2018-06-09T10:49:03.877Z,20.62
2018-06-09T10:51:36.302Z,14.43
2018-06-09T10:54:08.954Z,17.32
2018-06-09T10:56:41.850Z,19.50
2018-06-09T10:59:14.275Z,18.92
2018-06-09T11:01:46.730Z,16.62
2018-06-09T11:04:19.135Z,16.95
2018-06-09T11:06:51.793Z,17.95
2018-06-09T11:09:24.213Z,16.93
2018-06-09T11:11:56.898Z,15.85
2018-06-09T11:14:29.647Z,14.68
2018-06-09T11:17:02.255Z,20.00
2018-06-09T11:19:34.670Z,15.23
2018-06-09T11:22:07.719Z,12.10
2018-06-09T11:24:40.379Z,14.43
2018-06-09T11:27:13.033Z,17.00
2018-06-09T11:29:45.457Z,18.55
2018-06-09T11:32:17.877Z,18.40
2018-06-09T11:34:50.342Z,15.93
2018-06-09T11:37:22.788Z,18.55
2018-06-09T11:39:55.201Z,15.18
2018-06-09T11:42:27.618Z,18.37
2018-06-09T11:45:00.279Z,16.67
2018-06-09T11:47:32.658Z,12.70
2018-06-09T11:50:05.331Z,16.02
2018-06-09T11:52:37.709Z,17.00
2018-06-09T11:55:10.457Z,15.15
2018-06-09T11:57:43.063Z,15.20
2018-06-09T12:00:15.483Z,14.95
2018-06-09T12:02:48.197Z,14.28
2018-06-09T12:05:20.609Z,10.90
2018-06-09T12:07:52.997Z,12.15
2018-06-09T12:10:25.414Z,12.75
2018-06-09T12:12:57.865Z,12.07
2018-06-09T12:15:30.486Z,12.70
2018-06-09T12:18:02.896Z,11.88
2018-06-09T12:20:35.318Z,15.20
2018-06-09T12:23:07.729Z,15.68
2018-06-09T12:25:40.124Z,14.87
2018-06-09T12:28:12.832Z,18.45
2018-06-09T12:30:45.462Z,15.55
2018-06-09T12:33:17.878Z,15.85
2018-06-09T12:35:50.281Z,12.98
2018-06-09T12:38:22.681Z,14.25
2018-06-09T12:40:55.368Z,15.68
2018-06-09T12:43:27.762Z,15.20
2018-06-09T12:46:00.481Z,17.80
2018-06-09T12:48:33.148Z,16.97
2018-06-09T12:51:05.557Z,13.85
2018-06-09T12:53:37.969Z,20.82
2018-06-09T12:56:10.370Z,19.90
2018-06-09T12:58:43.034Z,19.05
2018-06-09T13:01:15.737Z,18.10
2018-06-09T13:03:48.262Z,17.37
2018-06-09T13:06:20.653Z,19.52
2018-06-09T13:08:53.106Z,22.15
2018-06-09T13:11:25.733Z,21.23
2018-06-09T13:13:58.299Z,20.60
2018-06-09T13:16:30.641Z,21.40
2018-06-09T13:19:03.046Z,18.60
2018-06-09T13:21:35.440Z,19.42
2018-06-09T13:24:07.877Z,22.27
2018-06-09T13:26:40.344Z,20.80
2018-06-09T13:29:13.054Z,18.17
2018-06-09T13:31:45.450Z,20.80
2018-06-09T13:34:18.225Z,22.77
2018-06-09T13:36:51.098Z,22.60
2018-06-09T13:39:23.566Z,25.62
2018-06-09T13:41:55.785Z,23.52
2018-06-09T13:44:28.415Z,24.77
2018-06-09T13:47:01.338Z,22.55
2018-06-09T13:49:34.078Z,21.40
2018-06-09T13:52:06.453Z,24.20
2018-06-09T13:54:39.031Z,22.58
2018-06-09T13:57:11.415Z,24.20
2018-06-09T13:59:43.821Z,23.32
2018-06-09T14:02:16.205Z,24.47
2018-06-09T14:04:48.626Z,24.18
2018-06-09T14:07:21.021Z,22.55
2018-06-09T14:09:53.766Z,25.80
2018-06-09T14:12:26.410Z,24.57
2018-06-09T14:14:59.225Z,26.97
2018-06-09T14:17:31.617Z,26.85
2018-06-09T14:20:04.249Z,23.10
2018-06-09T14:22:36.669Z,24.95
2018-06-09T14:25:09.061Z,28.12
2018-06-09T14:27:41.529Z,28.60
2018-06-09T14:30:14.234Z,29.65
2018-06-09T14:32:46.864Z,29.98
2018-06-09T14:35:19.488Z,28.38
2018-06-09T14:37:52.171Z,29.12
2018-06-09T14:40:24.679Z,28.50
2018-06-09T14:42:57.237Z,30.43
2018-06-09T14:45:29.882Z,29.12
2018-06-09T14:48:02.261Z,26.90
2018-06-09T14:50:34.657Z,25.25
2018-06-09T14:53:07.257Z,29.00
2018-06-09T14:55:39.935Z,29.75
2018-06-09T14:58:12.312Z,27.42
2018-06-09T15:00:45.733Z,24.85
2018-06-09T15:03:18.425Z,26.95
2018-06-09T15:05:51.367Z,22.55
2018-06-09T15:08:24.008Z,25.12
2018-06-09T15:10:56.707Z,23.92
2018-06-09T15:13:29.081Z,28.30
2018-06-09T15:16:01.482Z,25.75
2018-06-09T15:18:33.865Z,24.37
2018-06-09T15:21:06.249Z,25.50
2018-06-09T15:23:38.622Z,18.73
2018-06-09T15:26:11.229Z,29.18
2018-06-09T15:28:43.865Z,23.00
2018-06-09T15:31:16.520Z,26.27
2018-06-09T15:33:49.223Z,25.12
2018-06-09T15:36:21.573Z,25.90
2018-06-09T15:38:53.951Z,26.37
2018-06-09T15:41:26.721Z,25.50
2018-06-09T15:43:59.125Z,22.70
2018-06-09T15:46:31.643Z,24.95
2018-06-09T15:49:04.058Z,22.67
2018-06-09T15:51:36.442Z,20.10
2018-06-09T15:54:09.033Z,23.15
2018-06-09T15:56:41.673Z,20.88
2018-06-09T15:59:14.050Z,22.05
2018-06-09T16:01:46.441Z,20.80
2018-06-09T16:04:19.091Z,20.52
2018-06-09T16:06:51.751Z,21.07
2018-06-09T16:09:24.121Z,22.50
2018-06-09T16:11:56.361Z,20.15
2018-06-09T16:14:28.987Z,21.15
2018-06-09T16:17:01.382Z,19.23
2018-06-09T16:19:33.821Z,22.87
2018-06-09T16:22:06.211Z,18.42
2018-06-09T16:24:38.585Z,17.52
2018-06-09T16:27:11.277Z,18.07
2018-06-09T16:29:43.893Z,20.08
2018-06-09T16:32:16.509Z,18.95
2018-06-09T16:34:49.204Z,20.32
2018-06-09T16:37:21.869Z,21.02
2018-06-09T16:39:54.242Z,19.90
2018-06-09T16:42:26.869Z,20.50
2018-06-09T16:44:59.569Z,19.57
2018-06-09T16:47:31.973Z,19.12
2018-06-09T16:50:04.346Z,17.80
2018-06-09T16:52:36.739Z,20.12
2018-06-09T16:55:09.393Z,19.80
2018-06-09T16:57:41.790Z,17.98
2018-06-09T17:00:14.189Z,17.45
2018-06-09T17:02:46.870Z,15.40
2018-06-09T17:05:19.255Z,12.37
2018-06-09T17:07:51.637Z,11.78
2018-06-09T17:10:24.022Z,13.68
2018-06-09T17:12:56.407Z,14.15
2018-06-09T17:15:28.776Z,13.75
2018-06-09T17:18:01.174Z,17.20
2018-06-09T17:20:33.566Z,12.60
2018-06-09T17:23:06.501Z,16.02
2018-06-09T17:25:39.102Z,14.00
2018-06-09T17:28:11.481Z,14.65
2018-06-09T17:30:43.853Z,17.10
2018-06-09T17:33:16.477Z,18.25
2018-06-09T17:35:49.140Z,17.70
2018-06-09T17:38:21.564Z,14.60
2018-06-09T17:40:54.310Z,15.32
2018-06-09T17:43:26.982Z,13.93
2018-06-09T17:45:59.657Z,11.93
2018-06-09T17:48:32.070Z,15.70
2018-06-09T17:51:04.754Z,14.28
2018-06-09T17:53:37.085Z,15.68
2018-06-09T17:56:09.456Z,15.05
2018-06-09T17:58:42.161Z,13.90
2018-06-09T18:01:14.545Z,13.03
2018-06-09T18:03:47.213Z,10.80
2018-06-09T18:06:19.601Z,14.23
2018-06-09T18:08:51.980Z,12.47
2018-06-09T18:11:24.593Z,12.20
2018-06-09T18:13:56.984Z,13.40
2018-06-09T18:16:29.381Z,13.83
2018-06-09T18:19:02.037Z,13.20
2018-06-09T18:21:34.428Z,13.62
2018-06-09T18:24:07.170Z,14.75
2018-06-09T18:26:39.866Z,14.03
2018-06-09T18:29:12.250Z,14.45
2018-06-09T18:31:44.938Z,16.82
2018-06-09T18:34:17.577Z,17.20
2018-06-09T18:36:49.989Z,15.83
2018-06-09T18:39:22.666Z,16.10
2018-06-09T18:41:55.319Z,15.00
2018-06-09T18:44:27.718Z,14.75
2018-06-09T18:47:00.149Z,14.23
2018-06-09T18:49:32.581Z,16.57
2018-06-09T18:52:05.301Z,16.00
2018-06-09T18:54:37.969Z,15.88
2018-06-09T18:57:10.658Z,14.83
2018-06-09T18:59:43.044Z,18.40
2018-06-09T19:02:15.854Z,17.70
2018-06-09T19:04:48.738Z,18.98
2018-06-09T19:07:21.145Z,18.32
2018-06-09T19:09:53.553Z,18.35
2018-06-09T19:12:25.986Z,16.60
2018-06-09T19:14:58.636Z,18.23
2018-06-09T19:17:31.066Z,16.93
2018-06-09T19:20:03.479Z,18.85
2018-06-09T19:22:35.878Z,16.60
2018-06-09T19:25:08.269Z,17.80
2018-06-09T19:27:40.669Z,16.17
2018-06-09T19:30:13.067Z,19.60
2018-06-09T19:32:45.473Z,16.93
2018-06-09T19:35:18.185Z,18.73
2018-06-09T19:37:50.621Z,17.17
2018-06-09T19:40:23.381Z,17.52
2018-06-09T19:42:56.133Z,18.42
2018-06-09T19:45:28.541Z,19.15
2018-06-09T19:48:01.311Z,18.92
2018-06-09T19:50:33.989Z,18.85
2018-06-09T19:53:06.413Z,18.40
2018-06-09T19:55:38.881Z,21.75
2018-06-09T19:58:11.585Z,21.17
2018-06-09T20:00:44.238Z,20.55
2018-06-09T20:03:17.481Z,19.95
2018-06-09T20:05:49.877Z,19.87
2018-06-09T20:08:22.348Z,20.62
2018-06-09T20:10:55.069Z,19.50
2018-06-09T20:13:27.481Z,19.92
2018-06-09T20:16:00.229Z,19.95
2018-06-09T20:18:32.903Z,21.45
2018-06-09T20:21:05.570Z,18.60
2018-06-09T20:23:37.977Z,18.98
2018-06-09T20:26:10.670Z,20.27
2018-06-09T20:28:43.331Z,17.10
2018-06-09T20:31:15.978Z,18.12
2018-06-09T20:33:48.377Z,17.35
2018-06-09T20:36:20.777Z,16.70
2018-06-09T20:38:53.505Z,22.85
2018-06-09T20:41:26.145Z,26.52
2018-06-09T20:43:58.809Z,21.37
2018-06-09T20:46:31.217Z,17.92
2018-06-09T20:49:03.654Z,16.67
2018-06-09T20:51:36.049Z,17.90
2018-06-09T20:54:08.454Z,17.73
2018-06-09T20:56:40.833Z,25.48
2018-06-09T20:59:13.535Z,20.20
2018-06-09T21:01:45.741Z,20.40
2018-06-09T21:04:18.130Z,21.43
2018-06-09T21:06:50.772Z,18.27
2018-06-09T21:09:23.405Z,19.05
2018-06-09T21:11:55.791Z,20.45
2018-06-09T21:14:28.188Z,17.50
2018-06-09T21:17:00.806Z,21.50
2018-06-09T21:19:33.197Z,20.97
2018-06-09T21:22:05.573Z,20.30
2018-06-09T21:24:37.970Z,20.27
2018-06-09T21:27:10.621Z,18.27
2018-06-09T21:29:43.325Z,19.30
2018-06-09T21:32:15.738Z,17.57
2018-06-09T21:34:59.421Z,18.93
2018-06-09T21:37:32.130Z,19.57
2018-06-09T21:40:04.521Z,17.32
2018-06-09T21:42:36.897Z,18.07
2018-06-09T21:45:09.603Z,20.27
2018-06-09T21:47:42.209Z,16.70
2018-06-09T21:50:14.600Z,17.07
2018-06-09T21:52:47.219Z,20.10
2018-06-09T21:55:19.861Z,19.60
2018-06-09T21:57:52.569Z,19.10
2018-06-09T22:00:25.009Z,24.10
2018-06-09T22:02:57.689Z,22.87
2018-06-09T22:05:30.320Z,31.50
2018-06-09T22:08:02.702Z,34.77
2018-06-09T22:10:35.112Z,34.87
2018-06-09T22:13:07.505Z,34.13
2018-06-09T22:15:39.885Z,34.10
2018-06-09T22:18:12.263Z,25.70
2018-06-09T22:20:44.976Z,26.87
2018-06-09T22:23:17.344Z,26.53
2018-06-09T22:25:50.017Z,28.60
2018-06-09T22:28:22.673Z,31.73
2018-06-09T22:30:55.385Z,31.90
2018-06-09T22:33:28.055Z,26.57
2018-06-09T22:36:00.453Z,30.83
2018-06-09T22:38:33.074Z,30.53
2018-06-09T22:41:05.694Z,30.80
2018-06-09T22:43:38.357Z,31.40
2018-06-09T22:46:10.776Z,31.00
2018-06-09T22:48:43.157Z,31.63
2018-06-09T22:51:15.554Z,32.30
2018-06-09T22:53:47.953Z,33.67
2018-06-09T22:56:20.949Z,37.33
2018-06-09T22:58:53.656Z,35.40
2018-06-09T23:01:26.393Z,37.70
2018-06-09T23:03:58.789Z,36.93
2018-06-09T23:06:31.449Z,35.20
2018-06-09T23:09:06.721Z,34.43
2018-06-09T23:11:39.130Z,30.70
2018-06-09T23:14:11.773Z,25.00
2018-06-09T23:16:44.191Z,25.83
2018-06-09T23:19:16.605Z,25.17
2018-06-09T23:21:49.021Z,25.93
2018-06-09T23:24:21.421Z,28.27
2018-06-09T23:26:54.106Z,23.53
2018-06-09T23:29:26.506Z,26.33
2018-06-09T23:31:59.161Z,28.87
2018-06-09T23:34:32.181Z,27.70
2018-06-09T23:37:04.587Z,26.03
2018-06-09T23:39:37.012Z,26.17
2018-06-09T23:42:09.706Z,26.63
2018-06-09T23:44:42.118Z,28.87
2018-06-09T23:47:14.547Z,29.20
2018-06-09T23:49:46.955Z,28.93
2018-06-09T23:52:19.354Z,29.67
2018-06-09T23:54:52.071Z,25.87
2018-06-09T23:57:24.708Z,25.83
2018-06-09T23:59:57.124Z,25.07
